Airfield :
LOGIN :

Register | Disclaimer

   EN    FR    IT 

 










Legend :    VFR   Marginal VFR   IFR   Intensive IFR   Very Intensive IFR
Visi :
Ceiling :
>= 8 km
>= 3000ft
5 to 8 km
1000 to 3000 ft
1500m to 5 km
500 to 1000 ft
800 to 1500m
200 to 500 ft
< 800m
< 200 ft
Symbols :   Thunderstorms  Fog  Heavy snow  Heavy precipitations  Wind > 20 kt
SIGMETs :     Misc.  Thunderstorms  Icing  Turbulence  Mountain Waves  Volcanic Ashes







- Airport Elevation : 1090 ft
- IATA code : CFE
- Download approach charts


LFLC - Clermont-Ferrand Auvergne

CURRENT METAR :
  • 191300Z AUTO VRB02KT 9999 BKN043 BKN049 OVC120 09/01 Q1016 TEMPO 30017G27KT 4000 SHRA BKN028TCU

EXPIRED METARs :
  • 191230Z AUTO 30007KT 230V030 9999 BKN042 BKN049 09/01 Q1016 TEMPO 30017G27KT 4000 SHRA BKN028TCU
  • 191200Z AUTO 30010G25KT 260V350 9999 SCT042 10/01 Q1016 TEMPO 4000 SHRA BKN028TCU
  • 191130Z AUTO 29008KT 270V340 9999 FEW041 10/01 Q1016 TEMPO 30017G27KT 4000 SHRA BKN028TCU
  • 191100Z AUTO 29008KT 260V340 9999 SCT040 BKN062 10/01 Q1017 NOSIG
  • 191030Z AUTO 31009KT 290V350 9999 SCT040 SCT066 09/01 Q1017 NOSIG

TAF TAF LFLC
Valid from the 19 at 09:00 until the 20 at 09:00 UTC


190800Z 1909/2009 VRB03KT 9999 BKN037
BECMG 1910/1912 27010KT SCT032 SCT045
PROB40
TEMPO 1913/1919 30017G27KT 4000 SHRA BKN028TCU
TEMPO 1922/2001 VRB03KT BKN040
BECMG 2001/2004 16006KT
BECMG 2007/2009 18012G22KT BKN028 OVC070
ATIS : +33 4 73 62 74 38
No reported NOTAMs for that airfield.
2 SIGMETs reported for the Marseille FIR (LFMM) :
 
Severe turbulence
LFMM SIGMET 6 VALID 191100/191500 LFPW
LFMM MARSEILLE FIR/UIR SEV TURB FCST WI N4330 E00900 - N4315 E00945 - N4245 E00945 - N4230 E00800 - N4315 E00715 - N4330 E00900 SFC/FL040 STNR NC=
Severe mountain waves
LFMM SIGMET 5 VALID 191100/191500 LFPW
LFMM MARSEILLE FIR/UIR SEV MTW FCST E OF E00900 SFC/FL250 STNR NC=



MET'MAP, your aeronautical weather chart ! - Copyright ORBIFLY December 2007 - Disclaimer

ORBIFLY MET'MAP TEAM :

Programming & Development : Alexandra Zaïnal
Concept & Development : Baudouin d'Aumeries
Co-Development & Prog : Marc-Olivier Méhu
Technical & hardware support : Manuel Goepfert

Contact : metmap@orbifly.com




SOURCES & CREDITS :

   NOAA